<?xml version="1.0" encoding="UTF-8" standalone="no" ?>
<gpx xmlns="http://www.topografix.com/GPX/1/1" xmlns:xsi="http://www.w3.org/2001/XMLSchema-instance" xsi:schemaLocation="http://www.topografix.com/GPX/1/1 http://www.topografix.com/GPX/1/1/gpx.xsd" version="1.1" creator="VisuGPX - https://www.visugpx.com">
  <metadata>
    <name>Caurel_LacGuerledan_16km</name>
    <desc><![CDATA[gnerando idor:8152115]]></desc>
  </metadata>
  <trk>
    <name><![CDATA[LacGuerledan_Caurel_16km-8152115]]></name>
    <extensions>
      <line xmlns="http://www.topografix.com/GPX/gpx_style/0/2">
        <color>0000FF</color>
        <width>4</width>
      </line>
    </extensions>
    <trkseg>
      <trkpt lat="48.21626" lon="-3.03596">
        <ele>193</ele>
        <time>2023-10-31T20:48:39Z</time>
      </trkpt>
      <trkpt lat="48.21701" lon="-3.03493">
        <ele>207</ele>
        <time>2023-10-31T20:50:55Z</time>
      </trkpt>
      <trkpt lat="48.21729" lon="-3.03574">
        <ele>218</ele>
        <time>2023-10-31T20:52:16Z</time>
      </trkpt>
      <trkpt lat="48.21769" lon="-3.03514">
        <ele>226</ele>
        <time>2023-10-31T20:53:31Z</time>
      </trkpt>
      <trkpt lat="48.21767" lon="-3.0366">
        <ele>226</ele>
        <time>2023-10-31T20:55:41Z</time>
      </trkpt>
      <trkpt lat="48.21827" lon="-3.03823">
        <ele>237</ele>
        <time>2023-10-31T20:58:27Z</time>
      </trkpt>
      <trkpt lat="48.21861" lon="-3.04132">
        <ele>235</ele>
        <time>2023-10-31T21:03:05Z</time>
      </trkpt>
      <trkpt lat="48.2191" lon="-3.0466">
        <ele>262</ele>
        <time>2023-10-31T21:10:59Z</time>
      </trkpt>
      <trkpt lat="48.21872" lon="-3.05467">
        <ele>227</ele>
        <time>2023-10-31T21:22:58Z</time>
      </trkpt>
      <trkpt lat="48.21852" lon="-3.05853">
        <ele>225</ele>
        <time>2023-10-31T21:28:43Z</time>
      </trkpt>
      <trkpt lat="48.21821" lon="-3.05935">
        <ele>221</ele>
        <time>2023-10-31T21:30:07Z</time>
      </trkpt>
      <trkpt lat="48.21618" lon="-3.06042">
        <ele>207</ele>
        <time>2023-10-31T21:34:54Z</time>
      </trkpt>
      <trkpt lat="48.21632" lon="-3.06128">
        <ele>212</ele>
        <time>2023-10-31T21:36:12Z</time>
      </trkpt>
      <trkpt lat="48.21515" lon="-3.06188">
        <ele>205</ele>
        <time>2023-10-31T21:38:57Z</time>
      </trkpt>
      <trkpt lat="48.21509" lon="-3.06342">
        <ele>205</ele>
        <time>2023-10-31T21:41:15Z</time>
      </trkpt>
      <trkpt lat="48.21541" lon="-3.06501">
        <ele>207</ele>
        <time>2023-10-31T21:43:42Z</time>
      </trkpt>
      <trkpt lat="48.21372" lon="-3.06364">
        <ele>194</ele>
        <time>2023-10-31T21:47:59Z</time>
      </trkpt>
      <trkpt lat="48.21378" lon="-3.06651">
        <ele>186</ele>
        <time>2023-10-31T21:52:14Z</time>
      </trkpt>
      <trkpt lat="48.21303" lon="-3.06694">
        <ele>179</ele>
        <time>2023-10-31T21:54:01Z</time>
      </trkpt>
      <trkpt lat="48.21306" lon="-3.06883">
        <ele>172</ele>
        <time>2023-10-31T21:56:49Z</time>
      </trkpt>
      <trkpt lat="48.21135" lon="-3.06909">
        <ele>162</ele>
        <time>2023-10-31T22:00:39Z</time>
      </trkpt>
      <trkpt lat="48.20989" lon="-3.06862">
        <ele>164</ele>
        <time>2023-10-31T22:03:58Z</time>
      </trkpt>
      <trkpt lat="48.20972" lon="-3.066">
        <ele>173</ele>
        <time>2023-10-31T22:07:52Z</time>
      </trkpt>
      <trkpt lat="48.20992" lon="-3.06475">
        <ele>180</ele>
        <time>2023-10-31T22:09:46Z</time>
      </trkpt>
      <trkpt lat="48.20966" lon="-3.06381">
        <ele>182</ele>
        <time>2023-10-31T22:11:17Z</time>
      </trkpt>
      <trkpt lat="48.20926" lon="-3.06501">
        <ele>177</ele>
        <time>2023-10-31T22:13:16Z</time>
      </trkpt>
      <trkpt lat="48.20846" lon="-3.0651">
        <ele>176</ele>
        <time>2023-10-31T22:15:03Z</time>
      </trkpt>
      <trkpt lat="48.20746" lon="-3.06471">
        <ele>153</ele>
        <time>2023-10-31T22:17:21Z</time>
      </trkpt>
      <trkpt lat="48.20786" lon="-3.06132">
        <ele>162</ele>
        <time>2023-10-31T22:22:27Z</time>
      </trkpt>
      <trkpt lat="48.20723" lon="-3.05973">
        <ele>144</ele>
        <time>2023-10-31T22:25:12Z</time>
      </trkpt>
      <trkpt lat="48.20866" lon="-3.05634">
        <ele>159</ele>
        <time>2023-10-31T22:31:08Z</time>
      </trkpt>
      <trkpt lat="48.20937" lon="-3.0569">
        <ele>168</ele>
        <time>2023-10-31T22:32:55Z</time>
      </trkpt>
      <trkpt lat="48.21009" lon="-3.0569">
        <ele>171</ele>
        <time>2023-10-31T22:34:32Z</time>
      </trkpt>
      <trkpt lat="48.20986" lon="-3.05372">
        <ele>164</ele>
        <time>2023-10-31T22:39:16Z</time>
      </trkpt>
      <trkpt lat="48.20869" lon="-3.05377">
        <ele>156</ele>
        <time>2023-10-31T22:41:52Z</time>
      </trkpt>
      <trkpt lat="48.20748" lon="-3.05226">
        <ele>149</ele>
        <time>2023-10-31T22:45:22Z</time>
      </trkpt>
      <trkpt lat="48.20637" lon="-3.04956">
        <ele>132</ele>
        <time>2023-10-31T22:50:04Z</time>
      </trkpt>
      <trkpt lat="48.20568" lon="-3.04746">
        <ele>125</ele>
        <time>2023-10-31T22:53:33Z</time>
      </trkpt>
      <trkpt lat="48.20577" lon="-3.0466">
        <ele>123</ele>
        <time>2023-10-31T22:54:50Z</time>
      </trkpt>
      <trkpt lat="48.20648" lon="-3.04596">
        <ele>123</ele>
        <time>2023-10-31T22:56:41Z</time>
      </trkpt>
      <trkpt lat="48.20814" lon="-3.04797">
        <ele>130</ele>
        <time>2023-10-31T23:01:25Z</time>
      </trkpt>
      <trkpt lat="48.20846" lon="-3.049">
        <ele>136</ele>
        <time>2023-10-31T23:03:06Z</time>
      </trkpt>
      <trkpt lat="48.20966" lon="-3.04973">
        <ele>138</ele>
        <time>2023-10-31T23:05:59Z</time>
      </trkpt>
      <trkpt lat="48.21077" lon="-3.04965">
        <ele>137</ele>
        <time>2023-10-31T23:08:27Z</time>
      </trkpt>
      <trkpt lat="48.21083" lon="-3.0487">
        <ele>139</ele>
        <time>2023-10-31T23:09:52Z</time>
      </trkpt>
      <trkpt lat="48.20946" lon="-3.04793">
        <ele>131</ele>
        <time>2023-10-31T23:13:07Z</time>
      </trkpt>
      <trkpt lat="48.20891" lon="-3.04587">
        <ele>130</ele>
        <time>2023-10-31T23:16:25Z</time>
      </trkpt>
      <trkpt lat="48.21006" lon="-3.04424">
        <ele>139</ele>
        <time>2023-10-31T23:19:56Z</time>
      </trkpt>
      <trkpt lat="48.21057" lon="-3.04158">
        <ele>135</ele>
        <time>2023-10-31T23:24:02Z</time>
      </trkpt>
      <trkpt lat="48.21037" lon="-3.04098">
        <ele>137</ele>
        <time>2023-10-31T23:25:02Z</time>
      </trkpt>
      <trkpt lat="48.20909" lon="-3.04325">
        <ele>140</ele>
        <time>2023-10-31T23:29:26Z</time>
      </trkpt>
      <trkpt lat="48.20786" lon="-3.04467">
        <ele>127</ele>
        <time>2023-10-31T23:32:53Z</time>
      </trkpt>
      <trkpt lat="48.20683" lon="-3.0439">
        <ele>125</ele>
        <time>2023-10-31T23:35:27Z</time>
      </trkpt>
      <trkpt lat="48.20686" lon="-3.04282">
        <ele>136</ele>
        <time>2023-10-31T23:37:03Z</time>
      </trkpt>
      <trkpt lat="48.20614" lon="-3.04291">
        <ele>126</ele>
        <time>2023-10-31T23:38:39Z</time>
      </trkpt>
      <trkpt lat="48.20543" lon="-3.04209">
        <ele>125</ele>
        <time>2023-10-31T23:40:39Z</time>
      </trkpt>
      <trkpt lat="48.20505" lon="-3.03875">
        <ele>134</ele>
        <time>2023-10-31T23:45:40Z</time>
      </trkpt>
      <trkpt lat="48.20565" lon="-3.03832">
        <ele>156</ele>
        <time>2023-10-31T23:47:09Z</time>
      </trkpt>
      <trkpt lat="48.20497" lon="-3.03647">
        <ele>154</ele>
        <time>2023-10-31T23:50:17Z</time>
      </trkpt>
      <trkpt lat="48.20408" lon="-3.03398">
        <ele>168</ele>
        <time>2023-10-31T23:54:28Z</time>
      </trkpt>
      <trkpt lat="48.20368" lon="-3.03244">
        <ele>178</ele>
        <time>2023-10-31T23:56:55Z</time>
      </trkpt>
      <trkpt lat="48.20242" lon="-3.03201">
        <ele>167</ele>
        <time>2023-10-31T23:59:48Z</time>
      </trkpt>
      <trkpt lat="48.1997" lon="-3.02905">
        <ele>150</ele>
        <time>2023-11-01T00:07:16Z</time>
      </trkpt>
      <trkpt lat="48.19845" lon="-3.02746">
        <ele>128</ele>
        <time>2023-11-01T00:10:55Z</time>
      </trkpt>
      <trkpt lat="48.19782" lon="-3.02544">
        <ele>126</ele>
        <time>2023-11-01T00:14:13Z</time>
      </trkpt>
      <trkpt lat="48.19805" lon="-3.02351">
        <ele>125</ele>
        <time>2023-11-01T00:17:07Z</time>
      </trkpt>
      <trkpt lat="48.19882" lon="-3.02244">
        <ele>136</ele>
        <time>2023-11-01T00:19:28Z</time>
      </trkpt>
      <trkpt lat="48.1989" lon="-3.02016">
        <ele>137</ele>
        <time>2023-11-01T00:22:51Z</time>
      </trkpt>
      <trkpt lat="48.19888" lon="-3.01703">
        <ele>125</ele>
        <time>2023-11-01T00:27:29Z</time>
      </trkpt>
      <trkpt lat="48.20036" lon="-3.01785">
        <ele>144</ele>
        <time>2023-11-01T00:31:00Z</time>
      </trkpt>
      <trkpt lat="48.20174" lon="-3.01798">
        <ele>133</ele>
        <time>2023-11-01T00:34:04Z</time>
      </trkpt>
      <trkpt lat="48.20191" lon="-3.01935">
        <ele>143</ele>
        <time>2023-11-01T00:36:08Z</time>
      </trkpt>
      <trkpt lat="48.20251" lon="-3.01931">
        <ele>134</ele>
        <time>2023-11-01T00:37:28Z</time>
      </trkpt>
      <trkpt lat="48.20325" lon="-3.02004">
        <ele>139</ele>
        <time>2023-11-01T00:39:26Z</time>
      </trkpt>
      <trkpt lat="48.20345" lon="-3.01656">
        <ele>133</ele>
        <time>2023-11-01T00:44:37Z</time>
      </trkpt>
      <trkpt lat="48.20468" lon="-3.01562">
        <ele>138</ele>
        <time>2023-11-01T00:47:41Z</time>
      </trkpt>
      <trkpt lat="48.20605" lon="-3.01527">
        <ele>129</ele>
        <time>2023-11-01T00:50:47Z</time>
      </trkpt>
      <trkpt lat="48.207" lon="-3.02034">
        <ele>136</ele>
        <time>2023-11-01T00:58:35Z</time>
      </trkpt>
      <trkpt lat="48.20926" lon="-3.02587">
        <ele>135</ele>
        <time>2023-11-01T01:08:12Z</time>
      </trkpt>
      <trkpt lat="48.21017" lon="-3.02617">
        <ele>135</ele>
        <time>2023-11-01T01:10:16Z</time>
      </trkpt>
      <trkpt lat="48.21012" lon="-3.0251">
        <ele>125</ele>
        <time>2023-11-01T01:11:52Z</time>
      </trkpt>
      <trkpt lat="48.21189" lon="-3.02471">
        <ele>126</ele>
        <time>2023-11-01T01:15:50Z</time>
      </trkpt>
      <trkpt lat="48.21249" lon="-3.02252">
        <ele>121</ele>
        <time>2023-11-01T01:19:21Z</time>
      </trkpt>
      <trkpt lat="48.21312" lon="-3.02184">
        <ele>126</ele>
        <time>2023-11-01T01:21:05Z</time>
      </trkpt>
      <trkpt lat="48.21326" lon="-3.02055">
        <ele>124</ele>
        <time>2023-11-01T01:23:01Z</time>
      </trkpt>
      <trkpt lat="48.21266" lon="-3.01926">
        <ele>122</ele>
        <time>2023-11-01T01:25:21Z</time>
      </trkpt>
      <trkpt lat="48.21306" lon="-3.01845">
        <ele>127</ele>
        <time>2023-11-01T01:26:50Z</time>
      </trkpt>
      <trkpt lat="48.21343" lon="-3.01682">
        <ele>134</ele>
        <time>2023-11-01T01:29:23Z</time>
      </trkpt>
      <trkpt lat="48.21355" lon="-3.01506">
        <ele>136</ele>
        <time>2023-11-01T01:32:01Z</time>
      </trkpt>
      <trkpt lat="48.21469" lon="-3.01557">
        <ele>146</ele>
        <time>2023-11-01T01:34:40Z</time>
      </trkpt>
      <trkpt lat="48.21526" lon="-3.02038">
        <ele>153</ele>
        <time>2023-11-01T01:41:54Z</time>
      </trkpt>
      <trkpt lat="48.21606" lon="-3.02248">
        <ele>155</ele>
        <time>2023-11-01T01:45:29Z</time>
      </trkpt>
      <trkpt lat="48.21701" lon="-3.02394">
        <ele>161</ele>
        <time>2023-11-01T01:48:30Z</time>
      </trkpt>
      <trkpt lat="48.21729" lon="-3.02574">
        <ele>164</ele>
        <time>2023-11-01T01:51:15Z</time>
      </trkpt>
      <trkpt lat="48.21655" lon="-3.02823">
        <ele>169</ele>
        <time>2023-11-01T01:55:17Z</time>
      </trkpt>
      <trkpt lat="48.21546" lon="-3.03124">
        <ele>172</ele>
        <time>2023-11-01T02:00:22Z</time>
      </trkpt>
      <trkpt lat="48.21604" lon="-3.03351">
        <ele>186</ele>
        <time>2023-11-01T02:03:58Z</time>
      </trkpt>
      <trkpt lat="48.21629" lon="-3.03591">
        <ele>193</ele>
        <time>2023-11-01T02:07:34Z</time>
      </trkpt>
    </trkseg>
  </trk>
</gpx>